Time;durP1;ratioP1;P1;durP2;ratioP2;P2;SDS_P1;SDS_P2;PMS_P1;PMS_P2;Temp;Humidity;BMP_temperature;BMP_pressure;BME280_temperature;BME280_humidity;BME280_pressure;Samples;Min_cycle;Max_cycle;Signal;HPM_P1;HPM_P2
2023/09/13 00:00:01;;;;;;;1999.90;999.90;;;18.80;99.90;;;;;;5035112;28;20025;-77
2023/09/13 00:02:26;;;;;;;1999.90;999.90;;;18.80;99.90;;;;;;5034834;28;20034;-77
2023/09/13 00:04:54;;;;;;;1999.90;999.90;;;18.80;99.90;;;;;;5034947;28;20053;-77
2023/09/13 00:07:20;;;;;;;1999.90;999.90;;;18.70;99.90;;;;;;5035069;28;20524;-77
2023/09/13 00:09:45;;;;;;;1999.90;999.90;;;18.80;99.90;;;;;;5035340;28;20032;-77
2023/09/13 00:12:12;;;;;;;1999.90;999.90;;;18.70;99.90;;;;;;5050326;28;20017;-78
2023/09/13 00:14:38;;;;;;;1999.90;999.90;;;18.80;99.90;;;;;;5049172;28;20116;-78
2023/09/13 00:17:04;;;;;;;1999.90;999.90;;;18.70;99.90;;;;;;5045262;28;20108;-78
2023/09/13 00:19:30;;;;;;;1999.90;999.90;;;18.70;99.90;;;;;;5038413;28;20032;-78
2023/09/13 00:21:56;;;;;;;1999.90;999.90;;;18.70;99.90;;;;;;5034188;28;20040;-77
2023/09/13 00:24:22;;;;;;;1999.90;999.90;;;18.70;99.90;;;;;;5041959;28;20047;-73
2023/09/13 00:26:47;;;;;;;1999.90;999.90;;;18.60;99.90;;;;;;5054504;28;20060;-73
2023/09/13 00:29:16;;;;;;;1999.90;999.90;;;18.60;99.90;;;;;;5054475;28;20102;-77
2023/09/13 00:31:42;;;;;;;1999.90;999.90;;;18.60;99.90;;;;;;5054737;28;20024;-77
2023/09/13 00:34:08;;;;;;;1999.90;999.90;;;18.50;99.90;;;;;;5054488;28;20029;-78
2023/09/13 00:36:33;;;;;;;1999.90;999.90;;;18.50;99.90;;;;;;5054592;28;20025;-74
2023/09/13 00:38:59;;;;;;;1999.90;999.90;;;18.50;99.90;;;;;;5052890;28;20029;-73
2023/09/13 00:41:24;;;;;;;1999.90;999.90;;;18.50;99.90;;;;;;5054130;28;20107;-77
2023/09/13 00:43:50;;;;;;;1999.90;999.90;;;18.50;99.90;;;;;;5054338;28;20035;-77
2023/09/13 00:46:16;;;;;;;1999.90;999.90;;;18.40;99.90;;;;;;5050357;28;20028;-77
2023/09/13 00:48:42;;;;;;;1999.90;999.90;;;18.40;99.90;;;;;;5042868;28;20021;-77
2023/09/13 00:51:09;;;;;;;1999.90;999.90;;;18.40;99.90;;;;;;5034141;28;20527;-78
2023/09/13 00:53:35;;;;;;;1999.90;999.90;;;18.40;99.90;;;;;;5034293;28;20036;-77
2023/09/13 00:56:02;;;;;;;1999.90;999.90;;;18.40;99.90;;;;;;5034285;28;20025;-77
2023/09/13 00:58:28;;;;;;;1999.90;999.90;;;18.30;99.90;;;;;;5034067;28;20057;-77
2023/09/13 01:00:54;;;;;;;1999.90;999.90;;;18.30;99.90;;;;;;5033845;28;20070;-77
2023/09/13 01:03:21;;;;;;;1999.90;999.90;;;18.30;99.90;;;;;;5033876;28;20049;-73
2023/09/13 01:05:52;;;;;;;1999.90;999.90;;;18.30;99.90;;;;;;5034143;28;20032;-73
2023/09/13 01:08:21;;;;;;;1999.90;999.90;;;18.40;99.90;;;;;;5033969;28;20123;-77
2023/09/13 01:10:47;;;;;;;1999.90;999.90;;;18.30;99.90;;;;;;5038744;28;20169;-77
2023/09/13 01:13:13;;;;;;;1999.90;999.90;;;18.30;99.90;;;;;;5053672;28;20025;-77
2023/09/13 01:15:49;;;;;;;1999.90;999.90;;;18.30;99.90;;;;;;5042589;28;20392;-73
2023/09/13 01:18:25;;;;;;;1999.90;999.90;;;18.30;99.90;;;;;;5048886;28;20027;-77
2023/09/13 01:20:57;;;;;;;1999.90;999.90;;;18.30;99.90;;;;;;5033645;28;20044;-78
2023/09/13 01:23:50;;;;;;;1999.90;999.90;;;18.30;99.90;;;;;;5033533;28;20104;-77
2023/09/13 01:26:44;;;;;;;1999.90;999.90;;;18.30;99.90;;;;;;5033778;28;20056;-77
2023/09/13 01:29:14;;;;;;;;;;;18.30;99.90;;;;;;5033923;28;20100;-73
2023/09/13 01:31:40;;;;;;;1999.90;999.90;;;18.30;99.90;;;;;;5034065;28;20014;-73
2023/09/13 01:34:06;;;;;;;1999.90;999.90;;;18.30;99.90;;;;;;5033494;28;20034;-77
2023/09/13 01:36:31;;;;;;;1999.90;999.90;;;18.20;99.90;;;;;;5033529;28;20021;-77
2023/09/13 01:38:57;;;;;;;1999.90;999.90;;;18.20;99.90;;;;;;5032984;28;20026;-73
2023/09/13 01:41:30;;;;;;;1999.90;999.90;;;18.20;99.90;;;;;;5050583;28;20102;-73
2023/09/13 01:43:58;;;;;;;1999.90;999.90;;;18.20;99.90;;;;;;5053409;28;20064;-73
2023/09/13 01:46:38;;;;;;;1999.90;999.90;;;18.20;99.90;;;;;;5048161;28;20032;-77
2023/09/13 01:49:05;;;;;;;1999.90;999.90;;;18.20;99.90;;;;;;5043937;28;20025;-77
2023/09/13 01:51:31;;;;;;;1999.90;999.90;;;18.20;99.90;;;;;;5053283;28;20021;-78
2023/09/13 01:53:57;;;;;;;1999.90;999.90;;;18.20;99.90;;;;;;5051439;28;20075;-77
2023/09/13 01:56:23;;;;;;;1999.90;999.90;;;18.20;99.90;;;;;;5051722;28;20025;-73
2023/09/13 01:58:49;;;;;;;1999.90;999.90;;;18.20;99.90;;;;;;5052872;28;20048;-77
2023/09/13 02:01:16;;;;;;;1999.90;999.90;;;18.10;99.90;;;;;;5052711;28;20027;-77
2023/09/13 02:03:42;;;;;;;1999.90;999.90;;;18.20;99.90;;;;;;5052906;28;20522;-77
2023/09/13 02:06:08;;;;;;;1999.90;999.90;;;18.20;99.90;;;;;;5052681;28;20036;-73
2023/09/13 02:08:33;;;;;;;1999.90;999.90;;;18.20;99.90;;;;;;5052603;28;20025;-73
2023/09/13 02:10:59;;;;;;;1999.90;999.90;;;18.20;99.90;;;;;;5052660;28;20013;-73
2023/09/13 02:13:25;;;;;;;1999.90;999.90;;;18.10;99.90;;;;;;5051816;28;20021;-77
2023/09/13 02:15:50;;;;;;;1999.90;999.90;;;18.10;99.90;;;;;;5038339;28;20116;-77
2023/09/13 02:18:16;;;;;;;1999.90;999.90;;;18.10;99.90;;;;;;5041858;28;20029;-78
2023/09/13 02:20:42;;;;;;;1999.90;999.90;;;18.10;99.90;;;;;;5032703;28;20789;-73
2023/09/13 02:23:07;;;;;;;1999.90;999.90;;;18.10;99.90;;;;;;5032644;28;20033;-73
2023/09/13 02:25:37;;;;;;;1999.90;999.90;;;18.00;99.90;;;;;;5049702;28;20489;-78
2023/09/13 02:28:03;;;;;;;1999.90;999.90;;;18.00;99.90;;;;;;5052668;28;20024;-77
2023/09/13 02:30:30;;;;;;;1999.90;999.90;;;18.00;99.90;;;;;;5052623;28;20074;-77
2023/09/13 02:32:55;;;;;;;1999.90;999.90;;;18.00;99.90;;;;;;5052537;28;20037;-77
2023/09/13 02:35:21;;;;;;;1999.90;999.90;;;18.00;99.90;;;;;;5052625;28;20024;-73
2023/09/13 02:37:47;;;;;;;1999.90;999.90;;;17.90;99.90;;;;;;5052572;28;20104;-77
2023/09/13 02:40:13;;;;;;;1999.90;999.90;;;17.90;99.90;;;;;;5052185;28;20021;-77
2023/09/13 02:42:39;;;;;;;1999.90;999.90;;;17.90;99.90;;;;;;5051011;28;20078;-77
2023/09/13 02:45:05;;;;;;;1999.90;999.90;;;17.80;99.90;;;;;;5052439;28;20507;-78
2023/09/13 02:47:31;;;;;;;1999.90;999.90;;;17.80;99.90;;;;;;5040812;28;20029;-73
2023/09/13 02:49:57;;;;;;;1999.90;999.90;;;17.70;99.90;;;;;;5049876;28;20063;-73
2023/09/13 02:52:30;;;;;;;1999.90;999.90;;;17.70;99.90;;;;;;5052410;28;20397;-77
2023/09/13 02:54:57;;;;;;;1999.90;999.90;;;17.70;99.90;;;;;;5052332;28;20025;-78
2023/09/13 02:57:23;;;;;;;1999.90;999.90;;;17.70;99.90;;;;;;5052741;28;20021;-78
2023/09/13 02:59:48;;;;;;;1999.90;999.90;;;17.70;99.90;;;;;;5052348;28;20033;-73
2023/09/13 03:02:14;;;;;;;1999.90;999.90;;;17.70;99.90;;;;;;5052118;28;20021;-73
2023/09/13 03:04:40;;;;;;;1999.90;999.90;;;17.70;99.90;;;;;;5052112;28;20049;-77
2023/09/13 03:07:06;;;;;;;1999.90;999.90;;;17.70;99.90;;;;;;5050822;28;20037;-77
2023/09/13 03:09:31;;;;;;;1999.90;999.90;;;17.70;99.90;;;;;;5052649;28;20070;-78
2023/09/13 03:11:57;;;;;;;1999.90;999.90;;;17.60;99.90;;;;;;5052940;28;20118;-79
2023/09/13 03:14:22;;;;;;;1999.90;999.90;;;17.60;99.90;;;;;;5044811;28;20432;-73
2023/09/13 03:16:48;;;;;;;1999.90;999.90;;;17.60;99.90;;;;;;5043217;28;20040;-78
2023/09/13 03:19:14;;;;;;;1999.90;999.90;;;17.60;99.90;;;;;;5051218;28;20029;-77
2023/09/13 03:21:42;;;;;;;1999.90;999.90;;;17.50;99.90;;;;;;5051617;28;20188;-77
2023/09/13 03:24:08;;;;;;;1999.90;999.90;;;17.50;99.90;;;;;;5052106;28;20028;-77
2023/09/13 03:26:33;;;;;;;1999.90;999.90;;;17.50;99.90;;;;;;5055641;28;20025;-73
2023/09/13 03:28:59;;;;;;;1999.90;999.90;;;17.50;99.90;;;;;;5056024;28;20029;-73
2023/09/13 03:31:26;;;;;;;1999.90;999.90;;;17.50;99.90;;;;;;5055646;28;20086;-73
2023/09/13 03:33:54;;;;;;;1999.90;999.90;;;17.40;99.90;;;;;;5055725;28;20017;-77
2023/09/13 03:36:20;;;;;;;1999.90;999.90;;;17.40;99.90;;;;;;5055443;28;20499;-77
2023/09/13 03:38:46;;;;;;;1999.90;999.90;;;17.40;99.90;;;;;;5055256;28;20104;-73
2023/09/13 03:41:18;;;;;;;1999.90;999.90;;;17.40;99.90;;;;;;5055538;28;20418;-73
2023/09/13 03:43:43;;;;;;;1999.90;999.90;;;17.40;99.90;;;;;;5055449;28;20484;-77
2023/09/13 03:46:09;;;;;;;1999.90;999.90;;;17.40;99.90;;;;;;5051705;28;20033;-77
2023/09/13 03:48:37;;;;;;;1999.90;999.90;;;17.30;99.90;;;;;;5044547;28;20021;-77
2023/09/13 03:51:03;;;;;;;1999.90;999.90;;;17.30;99.90;;;;;;5035186;28;20071;-77
2023/09/13 03:53:29;;;;;;;1999.90;999.90;;;17.30;99.90;;;;;;5035579;28;20022;-73
2023/09/13 03:55:55;;;;;;;1999.90;999.90;;;17.30;99.90;;;;;;5035546;28;20044;-78
2023/09/13 03:58:21;;;;;;;1999.90;999.90;;;17.30;99.90;;;;;;5035232;28;20033;-77
2023/09/13 04:00:47;;;;;;;1999.90;999.90;;;17.20;99.90;;;;;;5035271;28;20029;-78
2023/09/13 04:03:14;;;;;;;1999.90;999.90;;;17.20;99.90;;;;;;5034894;28;20512;-77
2023/09/13 04:05:40;;;;;;;1999.90;999.90;;;17.20;99.90;;;;;;5046039;28;20036;-73
2023/09/13 04:08:06;;;;;;;1999.90;999.90;;;17.20;99.90;;;;;;5035987;28;20112;-73
2023/09/13 04:10:31;;;;;;;1999.90;999.90;;;17.20;99.90;;;;;;5037547;28;20074;-77
2023/09/13 04:12:57;;;;;;;1999.90;999.90;;;17.20;99.90;;;;;;5054289;28;20040;-78
2023/09/13 04:15:23;;;;;;;1999.90;999.90;;;17.20;99.90;;;;;;5053218;28;20029;-77
2023/09/13 04:17:48;;;;;;;1999.90;999.90;;;17.10;99.90;;;;;;5043758;28;20036;-73
2023/09/13 04:20:14;;;;;;;1999.90;999.90;;;17.10;99.90;;;;;;5047010;28;20400;-73
2023/09/13 04:22:39;;;;;;;1999.90;999.90;;;17.10;99.90;;;;;;5043794;28;20084;-78
2023/09/13 04:25:06;;;;;;;1999.90;999.90;;;17.10;99.90;;;;;;5047790;28;20052;-77
2023/09/13 04:27:32;;;;;;;1999.90;999.90;;;17.10;99.90;;;;;;5054828;28;20059;-78
2023/09/13 04:29:58;;;;;;;1999.90;999.90;;;17.00;99.90;;;;;;5054407;28;20052;-77
2023/09/13 04:32:24;;;;;;;1999.90;999.90;;;17.00;99.90;;;;;;5054611;28;20033;-73
2023/09/13 04:34:50;;;;;;;1999.90;999.90;;;17.00;99.90;;;;;;5054194;28;20476;-77
2023/09/13 04:37:16;;;;;;;1999.90;999.90;;;16.90;99.90;;;;;;5054216;28;20554;-77
2023/09/13 04:39:42;;;;;;;1999.90;999.90;;;16.90;99.90;;;;;;5054195;28;20025;-77
2023/09/13 04:42:08;;;;;;;1999.90;999.90;;;16.80;99.90;;;;;;5054436;28;20480;-77
2023/09/13 04:44:33;;;;;;;1999.90;999.90;;;16.80;99.90;;;;;;5054491;28;20128;-73
2023/09/13 04:46:59;;;;;;;1999.90;999.90;;;16.90;99.90;;;;;;5045889;28;20033;-73
2023/09/13 04:49:25;;;;;;;1999.90;999.90;;;16.80;99.90;;;;;;5041473;28;20022;-77
2023/09/13 04:51:52;;;;;;;1999.90;999.90;;;16.80;99.90;;;;;;5034129;28;20033;-78
2023/09/13 04:54:22;;;;;;;1999.90;999.90;;;16.80;99.90;;;;;;5034374;28;20396;-77
2023/09/13 04:56:50;;;;;;;1999.90;999.90;;;16.70;99.90;;;;;;5044369;28;20487;-73
2023/09/13 04:59:16;;;;;;;1999.90;999.90;;;16.70;99.90;;;;;;5049600;28;20496;-72
2023/09/13 05:01:42;;;;;;;1999.90;999.90;;;16.70;99.90;;;;;;5053771;28;20036;-77
2023/09/13 05:04:07;;;;;;;1999.90;999.90;;;16.70;99.90;;;;;;5052231;28;20048;-77
2023/09/13 05:06:33;;;;;;;1999.90;999.90;;;16.70;99.90;;;;;;5049890;28;20454;-77
2023/09/13 05:08:59;;;;;;;1999.90;999.90;;;16.70;99.90;;;;;;5053494;28;20021;-77
2023/09/13 05:11:25;;;;;;;1999.90;999.90;;;16.70;99.90;;;;;;5053741;28;20462;-73
2023/09/13 05:14:07;;;;;;;1999.90;999.90;;;16.70;99.90;;;;;;5049755;28;20025;-77
2023/09/13 05:16:32;;;;;;;1999.90;999.90;;;16.70;99.90;;;;;;5051044;28;20085;-77
2023/09/13 05:18:58;;;;;;;1999.90;999.90;;;16.70;99.90;;;;;;5037316;28;20030;-77
2023/09/13 05:21:24;;;;;;;1999.90;999.90;;;16.70;99.90;;;;;;5042130;28;20032;-78
2023/09/13 05:23:49;;;;;;;1999.90;999.90;;;16.70;99.90;;;;;;5053141;28;20171;-73
2023/09/13 05:26:15;;;;;;;1999.90;999.90;;;16.70;99.90;;;;;;5053436;28;20025;-77
2023/09/13 05:28:41;;;;;;;1999.90;999.90;;;16.80;99.90;;;;;;5049812;28;20026;-77
2023/09/13 05:31:06;;;;;;;1999.90;999.90;;;16.80;99.90;;;;;;5044085;28;20020;-78
2023/09/13 05:33:33;;;;;;;1999.90;999.90;;;16.90;99.90;;;;;;5053212;28;20476;-77
2023/09/13 05:35:59;;;;;;;1999.90;999.90;;;16.90;99.90;;;;;;5052915;28;20479;-75
2023/09/13 05:38:25;;;;;;;1999.90;999.90;;;17.00;99.90;;;;;;5052800;28;20102;-74
2023/09/13 05:40:51;;;;;;;1999.90;999.90;;;17.00;99.90;;;;;;5053146;28;20098;-80
2023/09/13 05:43:16;;;;;;;1999.90;999.90;;;17.00;99.90;;;;;;5046084;28;20538;-74
2023/09/13 05:45:42;;;;;;;1999.90;999.90;;;17.10;99.90;;;;;;5044160;28;20395;-79
2023/09/13 05:48:07;;;;;;;1999.90;999.90;;;17.10;99.90;;;;;;5042727;28;20024;-78
2023/09/13 05:50:33;;;;;;;1999.90;999.90;;;17.10;99.90;;;;;;5047352;28;20032;-71
2023/09/13 05:52:59;;;;;;;1999.90;999.90;;;17.20;99.90;;;;;;5044839;28;20035;-78
2023/09/13 05:55:24;;;;;;;1999.90;999.90;;;17.20;99.90;;;;;;5039463;28;20029;-78
2023/09/13 05:57:51;;;;;;;1999.90;999.90;;;17.30;99.90;;;;;;5043607;28;20025;-78
2023/09/13 06:00:17;;;;;;;1999.90;999.90;;;17.30;99.90;;;;;;5055355;28;20066;-79
2023/09/13 06:02:43;;;;;;;1999.90;999.90;;;17.30;99.90;;;;;;5047342;28;20029;-77
2023/09/13 06:05:09;;;;;;;1999.90;999.90;;;17.30;99.90;;;;;;5051232;28;20060;-72
2023/09/13 06:07:36;;;;;;;1999.90;999.90;;;17.40;99.90;;;;;;5063346;28;20048;-80
2023/09/13 06:10:03;;;;;;;1999.90;999.90;;;17.40;99.90;;;;;;5053963;28;20029;-79
2023/09/13 06:12:30;;;;;;;1999.90;999.90;;;17.50;99.90;;;;;;5051128;28;20017;-78
2023/09/13 06:14:57;;;;;;;1999.90;999.90;;;17.50;99.90;;;;;;5049290;28;20033;-73
2023/09/13 06:17:23;;;;;;;1999.90;999.90;;;17.40;99.90;;;;;;5050117;28;20041;-81
2023/09/13 06:19:50;;;;;;;1999.90;999.90;;;17.40;99.90;;;;;;5050738;28;20021;-73
2023/09/13 06:22:17;;;;;;;1999.90;999.90;;;17.50;99.90;;;;;;5049632;28;20032;-81
2023/09/13 06:24:42;;;;;;;1999.90;999.90;;;17.50;99.90;;;;;;5041433;28;20479;-81
2023/09/13 06:27:08;;;;;;;1999.90;999.90;;;17.50;99.90;;;;;;5041200;28;20160;-81
2023/09/13 06:29:34;;;;;;;1999.90;999.90;;;17.70;99.90;;;;;;5043557;28;20086;-73
2023/09/13 06:32:01;;;;;;;1999.90;999.90;;;17.70;99.90;;;;;;5046248;28;20100;-81
2023/09/13 06:34:27;;;;;;;1999.90;999.90;;;17.70;99.90;;;;;;5044834;28;20041;-80
2023/09/13 06:36:53;;;;;;;1999.90;999.90;;;17.80;99.90;;;;;;5047995;28;20032;-81
2023/09/13 06:39:19;;;;;;;1999.90;999.90;;;17.80;99.90;;;;;;5041006;28;20022;-73
2023/09/13 06:41:45;;;;;;;1999.90;999.90;;;17.70;99.90;;;;;;5043572;28;20571;-73
2023/09/13 06:44:10;;;;;;;1999.90;999.90;;;17.80;99.90;;;;;;5045185;28;20060;-73
2023/09/13 06:46:37;;;;;;;1999.90;999.90;;;17.80;99.90;;;;;;5051056;28;20029;-81
2023/09/13 06:49:03;;;;;;;1999.90;999.90;;;17.80;99.90;;;;;;5050467;28;20104;-74
2023/09/13 06:51:29;;;;;;;1999.90;999.90;;;17.80;99.90;;;;;;5046891;28;20116;-81
2023/09/13 06:53:55;;;;;;;1999.90;999.90;;;17.80;99.90;;;;;;5051430;28;20029;-73
2023/09/13 06:56:21;;;;;;;1999.90;999.90;;;17.60;99.90;;;;;;5051319;28;20031;-73
2023/09/13 06:58:46;;;;;;;1999.90;999.90;;;17.60;99.90;;;;;;5052359;28;20037;-81
2023/09/13 07:01:13;;;;;;;1999.90;999.90;;;17.60;99.90;;;;;;5055006;28;20067;-81
2023/09/13 07:03:39;;;;;;;1999.90;999.90;;;17.70;99.90;;;;;;5054687;28;20056;-81
2023/09/13 07:06:05;;;;;;;1999.90;999.90;;;17.70;99.90;;;;;;5053890;28;20380;-80
2023/09/13 07:08:31;;;;;;;1999.90;999.90;;;17.80;99.90;;;;;;5054274;28;20476;-74
2023/09/13 07:10:56;;;;;;;1999.90;999.90;;;17.90;99.90;;;;;;5054704;28;20056;-81
2023/09/13 07:13:22;;;;;;;1999.90;999.90;;;18.00;99.90;;;;;;5062683;28;20031;-74
2023/09/13 07:15:48;;;;;;;1999.90;999.90;;;18.00;99.90;;;;;;5053359;28;20089;-80
2023/09/13 07:18:14;;;;;;;1999.90;999.90;;;17.90;99.90;;;;;;5053796;28;20021;-80
2023/09/13 07:20:40;;;;;;;1999.90;999.90;;;18.00;99.90;;;;;;5054494;28;20059;-74
2023/09/13 07:23:06;;;;;;;1999.90;999.90;;;18.10;99.90;;;;;;5051948;28;20479;-74
2023/09/13 07:25:31;;;;;;;1999.90;999.90;;;18.20;99.90;;;;;;5054297;28;20032;-81
2023/09/13 07:27:57;;;;;;;1999.90;999.90;;;18.20;99.90;;;;;;5065800;28;20029;-80
2023/09/13 07:30:23;;;;;;;1999.90;999.90;;;18.30;99.90;;;;;;5059031;28;20120;-80
2023/09/13 07:32:49;;;;;;;1999.90;999.90;;;18.40;99.90;;;;;;5053759;28;20132;-74
2023/09/13 07:35:15;;;;;;;1999.90;999.90;;;18.40;99.90;;;;;;5052913;28;20199;-74
2023/09/13 07:37:40;;;;;;;1999.90;999.90;;;18.60;99.90;;;;;;5054132;28;20033;-74
2023/09/13 07:40:07;;;;;;;1999.90;999.90;;;18.80;99.90;;;;;;5053524;28;20446;-80
2023/09/13 07:42:32;;;;;;;1999.90;999.90;;;18.70;99.90;;;;;;5050275;28;20108;-74
2023/09/13 07:44:59;;;;;;;1999.90;999.90;;;18.70;99.90;;;;;;5047073;28;20108;-80
2023/09/13 07:47:27;;;;;;;1999.90;999.90;;;19.00;99.90;;;;;;5051723;28;20032;-81
2023/09/13 07:49:53;;;;;;;1999.90;999.90;;;20.60;99.90;;;;;;5042923;28;20017;-81
2023/09/13 07:52:18;;;;;;;1999.90;999.90;;;23.20;99.90;;;;;;5047189;28;20087;-80
2023/09/13 07:54:44;;;;;;;1999.90;999.90;;;22.40;99.90;;;;;;5051350;28;20074;-81
2023/09/13 07:57:10;;;;;;;1999.90;999.90;;;20.90;99.90;;;;;;5053760;28;20090;-80
2023/09/13 07:59:35;;;;;;;1999.90;999.90;;;20.00;99.90;;;;;;5053351;28;20546;-74
2023/09/13 08:02:01;;;;;;;1999.90;999.90;;;19.80;99.90;;;;;;5052958;28;20115;-74
2023/09/13 08:04:26;;;;;;;1999.90;999.90;;;19.40;99.90;;;;;;5050662;28;20087;-79
2023/09/13 08:06:52;;;;;;;1999.90;999.90;;;21.10;99.90;;;;;;5052653;28;20029;-80
2023/09/13 08:09:18;;;;;;;1999.90;999.90;;;22.30;99.90;;;;;;5052473;28;20471;-80
2023/09/13 08:11:46;;;;;;;1999.90;999.90;;;22.30;99.90;;;;;;5052603;28;20483;-73
2023/09/13 08:14:12;;;;;;;1999.90;999.90;;;23.30;99.90;;;;;;5051148;28;20024;-74
2023/09/13 08:16:38;;;;;;;1999.90;999.90;;;26.20;99.90;;;;;;5048847;28;20082;-81
2023/09/13 08:19:04;;;;;;;1999.90;999.90;;;27.30;99.90;;;;;;5052211;28;20487;-74
2023/09/13 08:21:29;;;;;;;1999.90;999.90;;;28.90;99.90;;;;;;5050947;28;20444;-82
2023/09/13 08:23:55;;;;;;;1999.90;999.90;;;29.50;99.90;;;;;;5051554;28;20020;-72
2023/09/13 08:26:21;;;;;;;1999.90;999.90;;;29.20;99.90;;;;;;5052231;28;20508;-79
2023/09/13 08:28:46;;;;;;;1999.90;999.90;;;29.10;99.90;;;;;;5052335;28;20039;-79
2023/09/13 08:31:12;;;;;;;1999.90;999.90;;;29.40;99.90;;;;;;5052686;28;20025;-72
2023/09/13 08:33:37;;;;;;;1999.90;999.90;;;28.00;99.90;;;;;;5053117;28;20496;-79
2023/09/13 08:36:04;;;;;;;1999.90;999.90;;;27.70;99.90;;;;;;5052497;28;20103;-73
2023/09/13 08:38:30;;;;;;;1999.90;999.90;;;28.70;99.90;;;;;;5052799;28;20021;-73
2023/09/13 08:40:55;;;;;;;1999.90;999.90;;;30.50;99.90;;;;;;5053311;28;20040;-72
2023/09/13 08:43:22;;;;;;;1999.90;999.90;;;31.20;99.90;;;;;;5053823;28;20086;-78
2023/09/13 08:45:50;;;;;;;1999.90;999.90;;;31.40;99.90;;;;;;5052963;28;20032;-79
2023/09/13 08:48:18;;;;;;;1999.90;999.90;;;31.60;99.90;;;;;;5051684;28;20029;-78
2023/09/13 08:50:46;;;;;;;1999.90;999.90;;;32.60;99.90;;;;;;5051914;28;20021;-72
2023/09/13 08:53:12;;;;;;;1999.90;999.90;;;32.10;99.90;;;;;;5047031;28;20037;-72
2023/09/13 08:55:39;;;;;;;1999.90;999.90;;;32.80;99.90;;;;;;5034135;28;20049;-80
2023/09/13 08:58:04;;;;;;;1999.90;999.90;;;32.20;99.90;;;;;;5037896;28;20067;-77
2023/09/13 09:00:39;;;;;;;1999.90;999.90;;;33.00;99.90;;;;;;5051436;28;20029;-77
2023/09/13 09:03:07;;;;;;;1999.90;999.90;;;32.50;99.90;;;;;;5050757;28;20449;-73
2023/09/13 09:05:34;;;;;;;1999.90;999.90;;;33.20;99.90;;;;;;5052902;28;20057;-72
2023/09/13 09:08:02;;;;;;;1999.90;999.90;;;33.10;99.50;;;;;;5057506;28;20482;-78
2023/09/13 09:10:30;;;;;;;1999.90;999.90;;;32.40;99.30;;;;;;5057268;28;20091;-78
2023/09/13 09:12:58;;;;;;;1999.90;999.90;;;31.60;99.90;;;;;;5051218;28;20470;-79
2023/09/13 09:15:26;;;;;;;1999.90;999.90;;;32.10;99.90;;;;;;5046846;28;20078;-78
2023/09/13 09:17:54;;;;;;;1999.90;999.90;;;32.80;99.00;;;;;;5047733;28;20443;-72
2023/09/13 09:20:20;;;;;;;1999.90;999.90;;;32.10;99.90;;;;;;5049401;28;20039;-73
2023/09/13 09:22:45;;;;;;;1999.90;999.90;;;31.90;99.90;;;;;;5049683;28;20205;-72
2023/09/13 09:25:12;;;;;;;1999.90;999.90;;;33.00;99.90;;;;;;5052062;28;20020;-78
2023/09/13 09:27:41;;;;;;;1999.90;999.90;;;32.40;98.90;;;;;;5050322;28;20032;-77
2023/09/13 09:30:08;;;;;;;1999.90;999.90;;;31.20;99.90;;;;;;5049424;28;20027;-77
2023/09/13 09:32:38;;;;;;;1999.90;999.90;;;29.90;99.90;;;;;;5052516;28;20060;-72
2023/09/13 09:35:07;;;;;;;1999.90;999.90;;;28.30;99.90;;;;;;5050036;28;20036;-78
2023/09/13 09:37:34;;;;;;;1999.90;999.90;;;27.70;99.90;;;;;;5052083;28;20473;-78
2023/09/13 09:40:01;;;;;;;1999.90;999.90;;;27.60;99.90;;;;;;5051807;28;20037;-73
2023/09/13 09:42:26;;;;;;;1999.90;999.90;;;27.40;99.90;;;;;;5051579;28;20056;-75
2023/09/13 09:44:52;;;;;;;1999.90;999.90;;;26.90;99.90;;;;;;5048876;28;20471;-75
2023/09/13 09:47:19;;;;;;;1999.90;999.90;;;26.90;99.90;;;;;;5048019;28;20438;-80
2023/09/13 09:49:52;;;;;;;1999.90;999.90;;;26.60;99.90;;;;;;5051696;28;20021;-80
2023/09/13 09:52:18;;;;;;;1999.90;999.90;;;26.50;99.90;;;;;;5046707;28;20529;-81
2023/09/13 09:54:49;;;;;;;1999.90;999.90;;;26.50;99.90;;;;;;5050561;28;20024;-81
2023/09/13 09:57:22;;;;;;;1999.90;999.90;;;26.90;99.90;;;;;;5051186;28;20025;-75
2023/09/13 09:59:48;;;;;;;1999.90;999.90;;;26.30;99.90;;;;;;5050119;28;20078;-80
2023/09/13 10:02:14;;;;;;;1999.90;999.90;;;26.00;99.90;;;;;;5045567;28;20095;-78
2023/09/13 10:04:49;;;;;;;1999.90;999.90;;;25.80;99.90;;;;;;5042665;28;20512;-79
2023/09/13 10:07:14;;;;;;;1999.90;999.90;;;25.30;99.90;;;;;;5045891;28;20082;-74
2023/09/13 10:09:41;;;;;;;1999.90;999.90;;;25.20;99.90;;;;;;5038167;28;20029;-74
2023/09/13 10:12:09;;;;;;;1999.90;999.90;;;25.90;99.90;;;;;;5049616;28;20021;-74
2023/09/13 10:14:35;;;;;;;1999.90;999.90;;;26.60;99.90;;;;;;5057270;28;20120;-77
2023/09/13 10:17:03;;;;;;;1999.90;999.90;;;27.00;99.90;;;;;;5047954;28;20021;-77
2023/09/13 10:19:30;;;;;;;1999.90;999.90;;;27.40;99.90;;;;;;5059798;28;20471;-77
2023/09/13 10:21:56;;;;;;;1999.90;999.90;;;27.00;99.90;;;;;;5050312;28;20398;-74
2023/09/13 10:24:24;;;;;;;1999.90;999.90;;;26.50;99.90;;;;;;5046646;28;20408;-73
2023/09/13 10:26:53;;;;;;;1999.90;999.90;;;26.30;99.90;;;;;;5054484;28;20082;-77
2023/09/13 10:29:47;;;;;;;1999.90;999.90;;;25.70;99.90;;;;;;5064122;28;20390;-77
2023/09/13 10:32:15;;;;;;;1999.90;999.90;;;24.90;99.90;;;;;;5046281;28;20029;-74
2023/09/13 10:34:50;;;;;;;1999.90;999.90;;;24.20;99.90;;;;;;5046422;28;20075;-73
2023/09/13 10:37:34;;;;;;;1999.90;999.90;;;23.90;99.90;;;;;;5055203;28;20079;-77
2023/09/13 10:40:10;;;;;;;1999.90;999.90;;;23.50;99.90;;;;;;5052404;28;20124;-77
2023/09/13 10:42:40;;;;;;;1999.90;999.90;;;23.00;99.90;;;;;;5053005;28;20408;-77
2023/09/13 10:45:07;;;;;;;1999.90;999.90;;;22.90;99.90;;;;;;5052965;28;20025;-77
2023/09/13 10:47:32;;;;;;;1999.90;999.90;;;23.20;99.90;;;;;;5052547;28;20053;-73
2023/09/13 10:50:01;;;;;;;1999.90;999.90;;;23.60;99.90;;;;;;5057091;28;20103;-73
2023/09/13 10:52:27;;;;;;;1999.90;999.90;;;23.90;99.90;;;;;;5052348;28;20022;-77
2023/09/13 10:54:56;;;;;;;1999.90;999.90;;;23.90;99.90;;;;;;5055453;28;20374;-77
2023/09/13 10:57:23;;;;;;;1999.90;999.90;;;24.30;99.90;;;;;;5049258;28;20395;-77
2023/09/13 10:59:49;;;;;;;1999.90;999.90;;;24.90;99.90;;;;;;5052441;28;20029;-77
2023/09/13 11:02:14;;;;;;;1999.90;999.90;;;24.60;99.90;;;;;;5053989;28;20033;-74
2023/09/13 11:04:40;;;;;;;1999.90;999.90;;;24.20;99.90;;;;;;5050062;28;20132;-77
2023/09/13 11:07:06;;;;;;;1999.90;999.90;;;24.20;99.90;;;;;;5054283;28;20124;-77
2023/09/13 11:09:33;;;;;;;1999.90;999.90;;;24.00;99.90;;;;;;5050257;28;20033;-77
2023/09/13 11:11:59;;;;;;;1999.90;999.90;;;24.00;99.90;;;;;;5050239;28;20039;-77
2023/09/13 11:14:26;;;;;;;1999.90;999.90;;;24.00;99.90;;;;;;5055589;28;20060;-73
2023/09/13 11:16:52;;;;;;;1999.90;999.90;;;24.00;99.90;;;;;;5059354;28;20090;-74
2023/09/13 11:19:17;;;;;;;1999.90;999.90;;;24.50;99.90;;;;;;5074681;28;20020;-76
2023/09/13 11:21:54;;;;;;;1999.90;999.90;;;24.20;99.90;;;;;;5072514;28;20039;-76
2023/09/13 11:24:36;;;;;;;1999.90;999.90;;;24.00;99.90;;;;;;5064372;28;20021;-76
2023/09/13 11:27:10;;;;;;;1999.90;999.90;;;24.20;99.90;;;;;;5050878;28;20514;-73
2023/09/13 11:29:41;;;;;;;1999.90;999.90;;;24.10;99.90;;;;;;5052621;28;20029;-77
2023/09/13 11:32:07;;;;;;;1999.90;999.90;;;23.70;99.90;;;;;;5053777;28;20035;-77
2023/09/13 11:34:34;;;;;;;1999.90;999.90;;;23.80;99.90;;;;;;5053082;28;20032;-76
2023/09/13 11:37:02;;;;;;;1999.90;999.90;;;24.00;99.90;;;;;;5053395;28;20025;-76
2023/09/13 11:39:28;;;;;;;1999.90;999.90;;;24.00;99.90;;;;;;5053440;28;20028;-74
2023/09/13 11:41:58;;;;;;;1999.90;999.90;;;24.40;99.90;;;;;;5050937;28;20041;-74
2023/09/13 11:44:24;;;;;;;1999.90;999.90;;;24.50;99.90;;;;;;5050759;28;20516;-76
2023/09/13 11:46:51;;;;;;;1999.90;999.90;;;24.70;99.90;;;;;;5049408;28;20032;-76
2023/09/13 11:49:22;;;;;;;1999.90;999.90;;;24.60;99.90;;;;;;5058466;28;20090;-76
2023/09/13 11:51:55;;;;;;;1999.90;999.90;;;23.80;99.90;;;;;;5052309;28;20485;-76
2023/09/13 11:54:22;;;;;;;1999.90;999.90;;;23.30;99.90;;;;;;5053706;28;20090;-75
2023/09/13 11:56:49;;;;;;;1999.90;999.90;;;23.80;99.90;;;;;;5051896;28;20407;-75